createdAt,value
2022-12-11T00:00:11.840Z,24.37
2022-12-11T00:02:38.647Z,23.20
2022-12-11T00:05:05.797Z,23.80
2022-12-11T00:07:32.548Z,22.70
2022-12-11T00:09:59.489Z,24.80
2022-12-11T00:12:26.313Z,23.27
2022-12-11T00:14:53.325Z,23.50
2022-12-11T00:17:20.157Z,22.83
2022-12-11T00:19:46.893Z,25.60
2022-12-11T00:22:13.690Z,23.47
2022-12-11T00:24:40.535Z,26.03
2022-12-11T00:27:07.956Z,23.60
2022-12-11T00:29:34.796Z,22.50
2022-12-11T00:32:01.792Z,23.63
2022-12-11T00:34:28.654Z,23.17
2022-12-11T00:36:55.451Z,22.20
2022-12-11T00:39:22.171Z,23.20
2022-12-11T00:41:48.909Z,22.27
2022-12-11T00:44:15.741Z,23.40
2022-12-11T00:46:42.539Z,21.87
2022-12-11T00:49:09.328Z,24.63
2022-12-11T00:51:36.135Z,23.27
2022-12-11T00:54:03.928Z,24.73
2022-12-11T00:56:30.976Z,24.73
2022-12-11T00:58:57.709Z,23.73
2022-12-11T01:01:25.750Z,24.43
2022-12-11T01:03:52.936Z,23.77
2022-12-11T01:06:23.615Z,25.40
2022-12-11T01:09:10.468Z,25.60
2022-12-11T01:11:37.470Z,24.00
2022-12-11T01:14:04.550Z,24.80
2022-12-11T01:16:31.492Z,24.80
2022-12-11T01:18:58.540Z,24.47
2022-12-11T01:21:25.442Z,24.40
2022-12-11T01:23:52.408Z,23.77
2022-12-11T01:26:19.358Z,23.73
2022-12-11T01:28:50.172Z,22.40
2022-12-11T01:31:18.543Z,24.67
2022-12-11T01:33:45.729Z,23.60
2022-12-11T01:36:15.429Z,23.80
2022-12-11T01:38:43.938Z,23.03
2022-12-11T01:41:11.449Z,22.50
2022-12-11T01:44:03.105Z,24.80
2022-12-11T01:46:31.631Z,22.77
2022-12-11T01:49:00.658Z,22.60
2022-12-11T01:51:30.686Z,21.77
2022-12-11T01:54:06.475Z,22.70
2022-12-11T01:56:36.063Z,23.23
2022-12-11T01:59:07.446Z,22.00
2022-12-11T02:01:47.849Z,22.60
2022-12-11T02:04:15.219Z,24.53
2022-12-11T02:06:45.178Z,25.03
2022-12-11T02:09:21.837Z,21.20
2022-12-11T02:12:03.988Z,21.50
2022-12-11T02:14:36.407Z,22.50
2022-12-11T02:17:13.238Z,22.83
2022-12-11T02:19:46.036Z,22.83
2022-12-11T02:22:27.573Z,21.27
2022-12-11T02:25:13.087Z,21.33
2022-12-11T02:27:49.338Z,21.93
2022-12-11T02:30:17.365Z,21.00
2022-12-11T02:32:51.912Z,21.30
2022-12-11T02:35:21.938Z,21.27
2022-12-11T02:37:55.224Z,19.90
2022-12-11T02:40:26.458Z,18.90
2022-12-11T02:42:57.746Z,18.53
2022-12-11T02:45:26.425Z,19.17
2022-12-11T02:47:53.421Z,19.60
2022-12-11T02:50:23.445Z,19.23
2022-12-11T02:52:54.030Z,19.60
2022-12-11T02:55:20.975Z,19.53
2022-12-11T02:57:52.839Z,20.43
2022-12-11T03:00:19.693Z,23.13
2022-12-11T03:02:46.780Z,21.07
2022-12-11T03:05:15.407Z,22.23
2022-12-11T03:07:43.834Z,22.13
2022-12-11T03:10:14.635Z,22.87
2022-12-11T03:12:45.428Z,21.10
2022-12-11T03:15:16.893Z,22.23
2022-12-11T03:18:08.505Z,21.53
2022-12-11T03:20:45.329Z,20.83
2022-12-11T03:23:30.629Z,22.47
2022-12-11T03:26:02.351Z,23.13
2022-12-11T03:28:50.788Z,19.57
2022-12-11T03:31:45.598Z,21.47
2022-12-11T03:34:41.472Z,22.50
2022-12-11T03:37:10.479Z,21.40
2022-12-11T03:39:42.354Z,22.53
2022-12-11T03:42:12.603Z,20.07
2022-12-11T03:44:40.675Z,21.47
2022-12-11T03:47:08.962Z,23.70
2022-12-11T03:49:40.030Z,22.40
2022-12-11T03:52:09.052Z,23.00
2022-12-11T03:54:36.619Z,22.40
2022-12-11T03:57:05.884Z,21.67
2022-12-11T03:59:32.635Z,19.80
2022-12-11T04:01:59.475Z,22.30
2022-12-11T04:04:26.286Z,22.60
2022-12-11T04:06:53.053Z,23.13
2022-12-11T04:09:19.849Z,21.37
2022-12-11T04:11:46.675Z,20.87
2022-12-11T04:14:33.056Z,23.10
2022-12-11T04:17:01.073Z,22.07
2022-12-11T04:19:46.589Z,22.17
2022-12-11T04:22:34.119Z,21.37
2022-12-11T04:25:02.178Z,20.47
2022-12-11T04:27:47.753Z,19.93
2022-12-11T04:30:20.228Z,20.63
2022-12-11T04:32:47.100Z,18.50
2022-12-11T04:35:14.521Z,19.43
2022-12-11T04:37:41.784Z,18.33
2022-12-11T04:40:11.749Z,20.77
2022-12-11T04:42:38.512Z,20.00
2022-12-11T04:45:08.256Z,18.83
2022-12-11T04:47:39.399Z,17.93
2022-12-11T04:50:08.203Z,19.77
2022-12-11T04:52:34.985Z,17.13
2022-12-11T04:55:03.013Z,15.83
2022-12-11T04:57:29.725Z,18.10
2022-12-11T04:59:58.855Z,15.90
2022-12-11T05:02:26.811Z,16.53
2022-12-11T05:04:53.618Z,16.47
2022-12-11T05:07:20.395Z,16.77
2022-12-11T05:09:47.096Z,17.00
2022-12-11T05:12:13.839Z,16.80
2022-12-11T05:14:40.592Z,17.20
2022-12-11T05:17:07.265Z,16.20
2022-12-11T05:19:33.994Z,17.07
2022-12-11T05:22:00.638Z,15.80
2022-12-11T05:24:27.409Z,15.63
2022-12-11T05:26:54.116Z,16.50
2022-12-11T05:29:20.820Z,14.60
2022-12-11T05:31:47.596Z,16.00
2022-12-11T05:34:15.880Z,16.63
2022-12-11T05:36:42.877Z,14.90
2022-12-11T05:39:11.971Z,14.43
2022-12-11T05:41:38.703Z,14.60
2022-12-11T05:44:05.696Z,15.30
2022-12-11T05:46:32.767Z,14.60
2022-12-11T05:49:01.671Z,17.20
2022-12-11T05:51:29.890Z,16.67
2022-12-11T05:53:57.837Z,16.23
2022-12-11T05:56:27.638Z,16.17
2022-12-11T05:58:55.889Z,16.00
2022-12-11T06:01:32.731Z,17.20
2022-12-11T06:03:59.788Z,17.50
2022-12-11T06:06:28.060Z,18.10
2022-12-11T06:08:56.920Z,18.20
2022-12-11T06:11:24.804Z,19.67
2022-12-11T06:13:52.733Z,19.00
2022-12-11T06:16:19.925Z,20.63
2022-12-11T06:18:47.505Z,20.70
2022-12-11T06:21:19.919Z,21.60
2022-12-11T06:23:48.617Z,22.43
2022-12-11T06:26:16.664Z,21.37
2022-12-11T06:28:43.386Z,23.87
2022-12-11T06:31:10.843Z,24.03
2022-12-11T06:33:38.125Z,23.30
2022-12-11T06:36:07.273Z,23.80
2022-12-11T06:38:33.980Z,23.80
2022-12-11T06:41:02.768Z,24.37
2022-12-11T06:43:29.557Z,24.30
2022-12-11T06:46:00.675Z,25.37
2022-12-11T06:48:30.415Z,25.27
2022-12-11T06:50:57.869Z,24.80
2022-12-11T06:53:24.638Z,24.30
2022-12-11T06:55:51.342Z,24.20
2022-12-11T06:58:18.038Z,25.10
2022-12-11T07:00:44.772Z,24.87
2022-12-11T07:03:13.933Z,24.00
2022-12-11T07:05:40.739Z,25.60
2022-12-11T07:08:07.657Z,23.70
2022-12-11T07:10:34.381Z,26.30
2022-12-11T07:13:01.094Z,24.07
2022-12-11T07:15:28.506Z,26.47
2022-12-11T07:17:55.253Z,26.50
2022-12-11T07:20:22.035Z,26.80
2022-12-11T07:22:49.174Z,26.53
2022-12-11T07:25:15.964Z,26.10
2022-12-11T07:27:42.828Z,25.03
2022-12-11T07:30:10.851Z,25.83
2022-12-11T07:32:37.925Z,26.17
2022-12-11T07:35:05.564Z,25.80
2022-12-11T07:37:32.246Z,25.97
2022-12-11T07:39:58.935Z,23.30
2022-12-11T07:42:25.745Z,26.33
2022-12-11T07:44:52.387Z,25.80
2022-12-11T07:47:19.291Z,27.40
2022-12-11T07:49:46.008Z,27.53
2022-12-11T07:52:12.770Z,26.13
2022-12-11T07:54:39.566Z,24.60
2022-12-11T07:57:12.305Z,27.00
2022-12-11T07:59:41.857Z,27.20
2022-12-11T08:02:13.153Z,26.93
2022-12-11T08:04:40.237Z,24.73
2022-12-11T08:07:07.045Z,24.53
2022-12-11T08:09:33.877Z,25.57
2022-12-11T08:12:00.731Z,24.17
2022-12-11T08:14:27.483Z,23.63
2022-12-11T08:16:54.283Z,23.23
2022-12-11T08:19:21.134Z,23.93
2022-12-11T08:21:47.913Z,24.13
2022-12-11T08:24:16.423Z,24.23
2022-12-11T08:26:43.238Z,23.00
2022-12-11T08:29:10.257Z,22.67
2022-12-11T08:31:37.000Z,22.93
2022-12-11T08:34:03.849Z,22.23
2022-12-11T08:36:30.611Z,23.07
2022-12-11T08:38:57.636Z,22.83
2022-12-11T08:41:29.420Z,22.33
2022-12-11T08:43:58.474Z,20.50
2022-12-11T08:46:28.298Z,21.90
2022-12-11T08:48:55.824Z,22.37
2022-12-11T08:51:25.146Z,22.90
2022-12-11T08:53:55.419Z,24.60
2022-12-11T08:56:23.789Z,25.87
2022-12-11T08:58:51.552Z,24.20
2022-12-11T09:01:21.670Z,24.20
2022-12-11T09:03:50.252Z,22.90
2022-12-11T09:06:19.792Z,24.17
2022-12-11T09:08:52.149Z,22.20
2022-12-11T09:11:25.685Z,24.17
2022-12-11T09:13:53.421Z,23.30
2022-12-11T09:16:22.421Z,24.60
2022-12-11T09:18:51.549Z,24.10
2022-12-11T09:21:20.598Z,23.67
2022-12-11T09:23:47.792Z,23.83
2022-12-11T09:26:17.332Z,26.27
2022-12-11T09:28:47.039Z,25.07
2022-12-11T09:31:14.088Z,25.73
2022-12-11T09:33:41.356Z,23.80
2022-12-11T09:36:08.513Z,23.30
2022-12-11T09:38:36.564Z,24.67
2022-12-11T09:41:35.927Z,24.30
2022-12-11T09:44:05.738Z,22.20
2022-12-11T09:46:34.538Z,26.33
2022-12-11T09:49:03.876Z,25.23
2022-12-11T09:51:39.522Z,23.70
2022-12-11T09:54:06.579Z,26.63
2022-12-11T09:56:42.427Z,25.87
2022-12-11T09:59:51.066Z,23.23
2022-12-11T10:02:41.062Z,21.87
2022-12-11T10:05:11.286Z,21.97
2022-12-11T10:07:53.115Z,21.20
2022-12-11T10:10:38.181Z,21.23
2022-12-11T10:13:24.051Z,19.70
2022-12-11T10:16:29.522Z,23.80
2022-12-11T10:18:58.085Z,22.30
2022-12-11T10:21:26.408Z,20.90
2022-12-11T10:23:58.488Z,22.10
2022-12-11T10:26:25.467Z,22.47
2022-12-11T10:28:52.277Z,21.80
2022-12-11T10:31:24.891Z,21.40
2022-12-11T10:34:10.136Z,20.97
2022-12-11T10:36:41.968Z,19.70
2022-12-11T10:39:15.711Z,21.70
2022-12-11T10:41:45.175Z,20.20
2022-12-11T10:44:29.828Z,22.60
2022-12-11T10:47:07.100Z,19.47
2022-12-11T10:49:36.435Z,21.30
2022-12-11T10:52:13.210Z,20.23
2022-12-11T10:54:43.522Z,20.30
2022-12-11T10:57:14.374Z,18.97
2022-12-11T10:59:46.287Z,20.40
2022-12-11T11:02:35.917Z,20.30
2022-12-11T11:05:17.513Z,24.10
2022-12-11T11:07:44.317Z,21.00
2022-12-11T11:10:11.212Z,23.20
2022-12-11T11:12:46.893Z,20.83
2022-12-11T11:15:19.765Z,20.03
2022-12-11T11:18:01.092Z,20.67
2022-12-11T11:20:31.080Z,21.20
2022-12-11T11:23:01.568Z,22.73
2022-12-11T11:25:30.829Z,18.90
2022-12-11T11:28:03.672Z,20.37
2022-12-11T11:30:41.881Z,19.60
2022-12-11T11:33:17.702Z,21.00
2022-12-11T11:35:56.528Z,20.80
2022-12-11T11:38:40.963Z,19.27
2022-12-11T11:41:29.309Z,19.20
2022-12-11T11:44:02.501Z,19.23
2022-12-11T11:46:57.142Z,20.00
2022-12-11T11:49:55.680Z,19.70
2022-12-11T11:52:30.878Z,18.90
2022-12-11T11:55:28.105Z,20.57
2022-12-11T11:58:19.379Z,19.97
2022-12-11T12:00:46.172Z,21.20
2022-12-11T12:03:19.040Z,20.13
2022-12-11T12:06:04.480Z,19.10
2022-12-11T12:08:33.948Z,20.63
2022-12-11T12:11:32.138Z,20.00
2022-12-11T12:14:29.167Z,20.80
2022-12-11T12:17:09.623Z,18.83
2022-12-11T12:19:45.104Z,19.00
2022-12-11T12:22:20.578Z,20.30
2022-12-11T12:25:02.489Z,19.70
2022-12-11T12:27:55.793Z,21.17
2022-12-11T12:30:23.915Z,19.53
2022-12-11T12:33:07.494Z,19.73
2022-12-11T12:35:44.667Z,20.93
2022-12-11T12:38:30.262Z,18.67
2022-12-11T12:40:59.805Z,20.73
2022-12-11T12:43:49.779Z,19.03
2022-12-11T12:46:57.613Z,20.87
2022-12-11T12:49:45.652Z,20.90
2022-12-11T12:52:18.768Z,21.87
2022-12-11T12:55:08.976Z,21.10
2022-12-11T12:57:38.560Z,21.93
2022-12-11T13:00:12.879Z,22.20
2022-12-11T13:02:50.994Z,23.17
2022-12-11T13:05:27.561Z,22.60
2022-12-11T13:08:01.641Z,23.27
2022-12-11T13:10:31.335Z,23.50
2022-12-11T13:12:59.142Z,23.80
2022-12-11T13:15:40.819Z,24.80
2022-12-11T13:18:38.262Z,23.13
2022-12-11T13:21:40.997Z,23.07
2022-12-11T13:24:23.967Z,22.47
2022-12-11T13:26:51.584Z,24.57
2022-12-11T13:29:39.709Z,21.17
2022-12-11T13:32:09.593Z,21.10
2022-12-11T13:34:45.206Z,22.37
2022-12-11T13:37:34.886Z,21.47
2022-12-11T13:40:06.661Z,22.40
2022-12-11T13:42:50.758Z,23.00
2022-12-11T13:45:28.442Z,24.60
2022-12-11T13:47:59.523Z,22.00
2022-12-11T13:50:34.578Z,20.90
2022-12-11T13:53:03.073Z,22.50
2022-12-11T13:55:32.796Z,24.13
2022-12-11T13:57:59.783Z,22.60
2022-12-11T14:00:30.408Z,22.43
2022-12-11T14:03:00.482Z,24.20
2022-12-11T14:05:28.472Z,24.20
2022-12-11T14:08:02.108Z,23.37
2022-12-11T14:10:31.928Z,22.87
2022-12-11T14:13:03.470Z,23.30
2022-12-11T14:15:32.178Z,23.93
2022-12-11T14:18:00.185Z,24.40
2022-12-11T14:20:32.652Z,22.93
2022-12-11T14:23:19.771Z,23.73
2022-12-11T14:25:56.832Z,26.23
2022-12-11T14:28:27.565Z,24.97
2022-12-11T14:30:59.189Z,25.50
2022-12-11T14:33:33.831Z,23.20
2022-12-11T14:36:01.517Z,26.90
2022-12-11T14:39:11.153Z,28.17
2022-12-11T14:41:47.385Z,25.50
2022-12-11T14:44:16.838Z,28.03
2022-12-11T14:46:54.523Z,26.07
2022-12-11T14:49:47.766Z,27.80
2022-12-11T14:52:21.503Z,25.80
2022-12-11T14:54:54.159Z,27.23
2022-12-11T14:57:25.563Z,18.67
2022-12-11T14:59:54.905Z,24.73
2022-12-11T15:02:39.599Z,30.00
2022-12-11T15:05:14.683Z,25.87
2022-12-11T15:07:43.791Z,28.43
2022-12-11T15:10:27.091Z,27.47
2022-12-11T15:12:54.674Z,26.57
2022-12-11T15:15:21.538Z,25.70
2022-12-11T15:17:52.869Z,27.87
2022-12-11T15:20:30.365Z,27.80
2022-12-11T15:23:00.703Z,26.10
2022-12-11T15:25:29.800Z,25.90
2022-12-11T15:27:59.727Z,25.67
2022-12-11T15:30:28.540Z,27.77
2022-12-11T15:33:25.243Z,27.97
2022-12-11T15:36:04.227Z,28.53
2022-12-11T15:38:37.679Z,26.70
2022-12-11T15:41:06.068Z,28.43
2022-12-11T15:43:36.905Z,27.97
2022-12-11T15:46:05.321Z,30.00
2022-12-11T15:48:32.109Z,28.47
2022-12-11T15:50:59.019Z,30.93
2022-12-11T15:53:25.928Z,29.30
2022-12-11T15:55:53.395Z,30.53
2022-12-11T15:58:23.199Z,28.60
2022-12-11T16:00:50.684Z,30.13
2022-12-11T16:03:19.616Z,30.17
2022-12-11T16:05:46.907Z,29.30
2022-12-11T16:08:16.536Z,29.60
2022-12-11T16:10:44.776Z,33.27
2022-12-11T16:13:12.895Z,32.73
2022-12-11T16:15:42.483Z,30.30
2022-12-11T16:18:13.038Z,27.43
2022-12-11T16:20:41.723Z,33.50
2022-12-11T16:23:09.481Z,31.53
2022-12-11T16:25:40.904Z,30.67
2022-12-11T16:28:08.809Z,30.43
2022-12-11T16:30:37.152Z,30.60
2022-12-11T16:33:11.753Z,32.90
2022-12-11T16:35:39.910Z,30.40
2022-12-11T16:38:07.810Z,28.93
2022-12-11T16:40:34.715Z,31.87
2022-12-11T16:43:02.820Z,30.83
2022-12-11T16:45:29.617Z,29.53
2022-12-11T16:47:56.418Z,29.47
2022-12-11T16:50:24.051Z,29.10
2022-12-11T16:52:51.107Z,28.57
2022-12-11T16:55:21.208Z,28.43
2022-12-11T16:57:48.437Z,29.10
2022-12-11T17:00:16.599Z,27.00
2022-12-11T17:02:43.655Z,28.03
2022-12-11T17:05:10.932Z,28.70
2022-12-11T17:07:38.033Z,28.43
2022-12-11T17:10:05.242Z,30.10
2022-12-11T17:12:32.249Z,27.23
2022-12-11T17:14:59.109Z,26.80
2022-12-11T17:17:26.004Z,29.57
2022-12-11T17:19:52.915Z,29.17
2022-12-11T17:22:20.043Z,30.83
2022-12-11T17:24:47.017Z,28.80
2022-12-11T17:27:14.028Z,28.73
2022-12-11T17:29:40.886Z,29.50
2022-12-11T17:32:07.775Z,28.40
2022-12-11T17:34:38.095Z,30.27
2022-12-11T17:37:06.098Z,29.50
2022-12-11T17:39:32.883Z,31.87
2022-12-11T17:41:59.857Z,32.30
2022-12-11T17:44:30.373Z,29.23
2022-12-11T17:46:58.267Z,31.07
2022-12-11T17:49:25.559Z,32.53
2022-12-11T17:51:55.480Z,30.67
2022-12-11T17:54:24.249Z,30.63
2022-12-11T17:56:51.361Z,31.50
2022-12-11T17:59:18.460Z,31.00
2022-12-11T18:01:46.108Z,31.83
2022-12-11T18:04:13.739Z,30.43
2022-12-11T18:06:40.883Z,30.97
2022-12-11T18:09:08.058Z,31.47
2022-12-11T18:11:35.661Z,31.93
2022-12-11T18:14:02.934Z,30.00
2022-12-11T18:16:33.082Z,33.20
2022-12-11T18:19:00.524Z,31.87
2022-12-11T18:21:32.039Z,30.00
2022-12-11T18:24:00.321Z,29.20
2022-12-11T18:26:29.010Z,30.60
2022-12-11T18:28:56.388Z,32.37
2022-12-11T18:31:24.410Z,33.77
2022-12-11T18:33:51.769Z,35.77
2022-12-11T18:36:19.635Z,42.20
2022-12-11T18:38:48.093Z,30.83
2022-12-11T18:41:17.194Z,28.33
2022-12-11T18:43:45.239Z,34.13
2022-12-11T18:46:15.510Z,32.93
2022-12-11T18:48:43.992Z,31.13
2022-12-11T18:51:17.632Z,30.23
2022-12-11T18:53:45.132Z,32.40
2022-12-11T18:56:15.087Z,30.90
2022-12-11T18:58:42.242Z,31.03
2022-12-11T19:01:19.278Z,29.73
2022-12-11T19:03:46.896Z,30.70
2022-12-11T19:06:20.433Z,31.10
2022-12-11T19:08:48.576Z,31.80
2022-12-11T19:11:17.765Z,31.30
2022-12-11T19:13:45.417Z,29.80
2022-12-11T19:16:27.152Z,29.50
2022-12-11T19:18:54.300Z,32.07
2022-12-11T19:21:21.882Z,30.17
2022-12-11T19:23:48.890Z,33.60
2022-12-11T19:26:19.257Z,33.17
2022-12-11T19:28:47.440Z,31.23
2022-12-11T19:31:20.797Z,34.40
2022-12-11T19:33:48.024Z,33.80
2022-12-11T19:36:23.659Z,34.27
2022-12-11T19:38:56.469Z,35.70
2022-12-11T19:41:29.423Z,36.33
2022-12-11T19:43:58.535Z,37.50
2022-12-11T19:46:27.161Z,36.70
2022-12-11T19:48:56.683Z,38.40
2022-12-11T19:51:28.640Z,37.10
2022-12-11T19:53:56.472Z,35.93
2022-12-11T19:56:24.162Z,33.10
2022-12-11T19:58:51.418Z,36.17
2022-12-11T20:01:29.393Z,39.30
2022-12-11T20:04:00.123Z,32.57
2022-12-11T20:06:35.671Z,40.70
2022-12-11T20:09:07.663Z,36.90
2022-12-11T20:11:35.247Z,32.50
2022-12-11T20:14:02.490Z,31.37
2022-12-11T20:17:01.607Z,30.60
2022-12-11T20:19:17.024Z,31.70
2022-12-11T20:21:44.311Z,32.50
2022-12-11T20:24:11.565Z,31.63
2022-12-11T20:26:39.232Z,31.20
2022-12-11T20:29:08.519Z,30.07
2022-12-11T20:31:36.964Z,32.30
2022-12-11T20:34:04.925Z,31.47
2022-12-11T20:36:32.448Z,32.87
2022-12-11T20:39:00.235Z,32.27
2022-12-11T20:41:28.110Z,32.17
2022-12-11T20:43:55.342Z,31.67
2022-12-11T20:46:25.125Z,31.37
2022-12-11T20:48:53.487Z,33.17
2022-12-11T20:51:25.736Z,31.90
2022-12-11T20:53:59.270Z,34.63
2022-12-11T20:56:30.075Z,32.57
2022-12-11T20:58:58.446Z,34.37
2022-12-11T21:01:27.805Z,34.97
2022-12-11T21:03:55.273Z,32.93
2022-12-11T21:06:26.122Z,34.10
2022-12-11T21:08:54.294Z,33.57
2022-12-11T21:11:21.659Z,32.33
2022-12-11T21:13:49.248Z,35.10
2022-12-11T21:16:16.395Z,32.63
2022-12-11T21:18:44.915Z,31.80
2022-12-11T21:21:12.671Z,31.57
2022-12-11T21:23:40.278Z,31.87
2022-12-11T21:26:07.898Z,30.90
2022-12-11T21:28:35.722Z,33.40
2022-12-11T21:31:06.962Z,32.80
2022-12-11T21:33:34.648Z,32.30
2022-12-11T21:36:02.659Z,35.67
2022-12-11T21:38:30.191Z,31.03
2022-12-11T21:40:57.417Z,33.13
2022-12-11T21:43:26.609Z,34.73
2022-12-11T21:46:02.075Z,33.67
2022-12-11T21:48:29.900Z,32.00
2022-12-11T21:51:06.217Z,32.07
2022-12-11T21:53:33.830Z,30.33
2022-12-11T21:56:04.282Z,31.33
2022-12-11T21:58:31.821Z,31.80
2022-12-11T22:00:59.182Z,31.57
2022-12-11T22:03:26.059Z,29.73
2022-12-11T22:05:53.470Z,29.27
2022-12-11T22:08:21.159Z,31.57
2022-12-11T22:10:49.255Z,29.03
2022-12-11T22:13:16.638Z,29.77
2022-12-11T22:15:43.987Z,29.50
2022-12-11T22:18:11.195Z,29.03
2022-12-11T22:20:38.258Z,30.37
2022-12-11T22:23:05.609Z,28.70
2022-12-11T22:25:32.832Z,28.33
2022-12-11T22:27:59.849Z,28.30
2022-12-11T22:30:27.061Z,28.57
2022-12-11T22:32:54.237Z,30.13
2022-12-11T22:35:26.879Z,30.37
2022-12-11T22:37:54.518Z,30.13
2022-12-11T22:40:21.714Z,32.47
2022-12-11T22:42:49.059Z,30.47
2022-12-11T22:45:16.088Z,29.90
2022-12-11T22:47:43.287Z,31.20
2022-12-11T22:50:12.030Z,30.80
2022-12-11T22:52:39.228Z,30.90
2022-12-11T22:55:07.163Z,30.23
2022-12-11T22:57:37.165Z,28.40
2022-12-11T23:00:10.538Z,27.13
2022-12-11T23:02:38.383Z,29.47
2022-12-11T23:05:05.835Z,29.93
2022-12-11T23:07:33.229Z,30.47
2022-12-11T23:10:00.006Z,28.93
2022-12-11T23:12:26.821Z,30.47
2022-12-11T23:14:53.639Z,32.47
2022-12-11T23:17:20.407Z,29.30
2022-12-11T23:19:47.511Z,28.90
2022-12-11T23:22:14.434Z,32.53
2022-12-11T23:24:41.498Z,29.63
2022-12-11T23:27:08.430Z,30.27
2022-12-11T23:29:35.326Z,29.07
2022-12-11T23:32:02.272Z,27.67
2022-12-11T23:34:29.046Z,29.00
2022-12-11T23:36:55.831Z,26.07
2022-12-11T23:39:22.872Z,28.37
2022-12-11T23:41:49.827Z,28.20
2022-12-11T23:44:16.622Z,27.10
2022-12-11T23:46:44.923Z,26.93
2022-12-11T23:49:12.026Z,27.47
2022-12-11T23:51:39.381Z,26.07
2022-12-11T23:54:06.120Z,27.77
2022-12-11T23:56:33.018Z,26.57
2022-12-11T23:58:59.760Z,24.60
